sensor_id;sensor_type;location;lat;lon;timestamp;P1;durP1;ratioP1;P2;durP2;ratioP2
53287;SDS011;39172;45.550;12.072;2023-08-24T00:02:23;4.00;;;3.70;;
53287;SDS011;39172;45.550;12.072;2023-08-24T00:08:24;3.95;;;3.53;;
53287;SDS011;39172;45.550;12.072;2023-08-24T00:14:25;3.75;;;3.45;;
53287;SDS011;39172;45.550;12.072;2023-08-24T00:20:26;4.22;;;3.83;;
53287;SDS011;39172;45.550;12.072;2023-08-24T00:26:27;4.45;;;4.07;;
53287;SDS011;39172;45.550;12.072;2023-08-24T00:32:29;3.88;;;3.47;;
53287;SDS011;39172;45.550;12.072;2023-08-24T00:38:30;3.40;;;3.10;;
53287;SDS011;39172;45.550;12.072;2023-08-24T00:44:32;3.10;;;2.80;;
53287;SDS011;39172;45.550;12.072;2023-08-24T00:50:33;3.28;;;2.88;;
53287;SDS011;39172;45.550;12.072;2023-08-24T00:56:34;3.30;;;3.00;;
53287;SDS011;39172;45.550;12.072;2023-08-24T01:02:35;3.75;;;3.45;;
53287;SDS011;39172;45.550;12.072;2023-08-24T01:08:36;4.22;;;3.15;;
53287;SDS011;39172;45.550;12.072;2023-08-24T01:20:47;3.20;;;2.90;;
53287;SDS011;39172;45.550;12.072;2023-08-24T01:26:49;3.30;;;3.00;;
53287;SDS011;39172;45.550;12.072;2023-08-24T01:32:50;3.05;;;2.70;;
53287;SDS011;39172;45.550;12.072;2023-08-24T01:38:58;3.10;;;2.80;;
53287;SDS011;39172;45.550;12.072;2023-08-24T01:45:00;3.20;;;2.75;;
53287;SDS011;39172;45.550;12.072;2023-08-24T01:51:03;3.15;;;2.90;;
53287;SDS011;39172;45.550;12.072;2023-08-24T01:57:05;2.75;;;2.55;;
53287;SDS011;39172;45.550;12.072;2023-08-24T02:03:07;2.88;;;2.67;;
53287;SDS011;39172;45.550;12.072;2023-08-24T02:09:08;2.60;;;2.40;;
53287;SDS011;39172;45.550;12.072;2023-08-24T02:15:09;2.85;;;2.60;;
53287;SDS011;39172;45.550;12.072;2023-08-24T02:21:11;2.72;;;2.53;;
53287;SDS011;39172;45.550;12.072;2023-08-24T02:27:12;2.83;;;2.63;;
53287;SDS011;39172;45.550;12.072;2023-08-24T02:33:14;3.70;;;3.40;;
53287;SDS011;39172;45.550;12.072;2023-08-24T02:39:15;3.40;;;3.10;;
53287;SDS011;39172;45.550;12.072;2023-08-24T02:45:16;5.05;;;4.55;;
53287;SDS011;39172;45.550;12.072;2023-08-24T02:51:17;5.70;;;5.20;;
53287;SDS011;39172;45.550;12.072;2023-08-24T02:57:18;5.63;;;5.13;;
53287;SDS011;39172;45.550;12.072;2023-08-24T03:03:19;5.85;;;5.35;;
53287;SDS011;39172;45.550;12.072;2023-08-24T03:09:20;5.65;;;5.13;;
53287;SDS011;39172;45.550;12.072;2023-08-24T03:15:21;4.88;;;4.32;;
53287;SDS011;39172;45.550;12.072;2023-08-24T03:21:22;5.60;;;5.10;;
53287;SDS011;39172;45.550;12.072;2023-08-24T03:27:23;4.97;;;4.57;;
53287;SDS011;39172;45.550;12.072;2023-08-24T03:33:24;5.60;;;5.10;;
53287;SDS011;39172;45.550;12.072;2023-08-24T03:39:25;5.50;;;5.00;;
53287;SDS011;39172;45.550;12.072;2023-08-24T03:45:26;5.50;;;5.10;;
53287;SDS011;39172;45.550;12.072;2023-08-24T03:51:27;5.32;;;4.82;;
53287;SDS011;39172;45.550;12.072;2023-08-24T03:57:30;4.78;;;4.38;;
53287;SDS011;39172;45.550;12.072;2023-08-24T04:03:31;4.88;;;4.47;;
53287;SDS011;39172;45.550;12.072;2023-08-24T04:09:32;4.60;;;4.20;;
53287;SDS011;39172;45.550;12.072;2023-08-24T04:15:33;4.45;;;4.05;;
53287;SDS011;39172;45.550;12.072;2023-08-24T04:21:34;4.00;;;3.70;;
53287;SDS011;39172;45.550;12.072;2023-08-24T04:27:35;4.57;;;4.22;;
53287;SDS011;39172;45.550;12.072;2023-08-24T04:33:37;4.60;;;4.20;;
53287;SDS011;39172;45.550;12.072;2023-08-24T04:39:37;5.03;;;4.45;;
53287;SDS011;39172;45.550;12.072;2023-08-24T04:45:38;4.82;;;4.30;;
53287;SDS011;39172;45.550;12.072;2023-08-24T04:51:39;4.70;;;4.30;;
53287;SDS011;39172;45.550;12.072;2023-08-24T04:57:40;4.90;;;4.50;;
53287;SDS011;39172;45.550;12.072;2023-08-24T05:03:42;4.93;;;4.40;;
53287;SDS011;39172;45.550;12.072;2023-08-24T05:09:43;5.13;;;4.15;;
53287;SDS011;39172;45.550;12.072;2023-08-24T05:15:44;3.95;;;3.53;;
53287;SDS011;39172;45.550;12.072;2023-08-24T05:21:45;3.55;;;3.25;;
53287;SDS011;39172;45.550;12.072;2023-08-24T05:27:46;4.50;;;3.38;;
53287;SDS011;39172;45.550;12.072;2023-08-24T05:33:47;3.42;;;3.13;;
53287;SDS011;39172;45.550;12.072;2023-08-24T05:39:48;3.88;;;2.85;;
53287;SDS011;39172;45.550;12.072;2023-08-24T05:45:49;3.30;;;3.00;;
53287;SDS011;39172;45.550;12.072;2023-08-24T05:51:50;3.30;;;3.00;;
53287;SDS011;39172;45.550;12.072;2023-08-24T05:57:51;3.58;;;3.28;;
53287;SDS011;39172;45.550;12.072;2023-08-24T06:03:52;3.85;;;3.42;;
53287;SDS011;39172;45.550;12.072;2023-08-24T06:09:53;4.13;;;3.72;;
53287;SDS011;39172;45.550;12.072;2023-08-24T06:15:54;4.88;;;4.20;;
53287;SDS011;39172;45.550;12.072;2023-08-24T06:21:55;4.43;;;3.80;;
53287;SDS011;39172;45.550;12.072;2023-08-24T06:27:56;3.80;;;3.40;;
53287;SDS011;39172;45.550;12.072;2023-08-24T06:33:57;3.75;;;3.40;;
53287;SDS011;39172;45.550;12.072;2023-08-24T06:39:58;3.30;;;3.00;;
53287;SDS011;39172;45.550;12.072;2023-08-24T06:45:59;3.53;;;3.22;;
53287;SDS011;39172;45.550;12.072;2023-08-24T06:52:01;4.05;;;3.40;;
53287;SDS011;39172;45.550;12.072;2023-08-24T06:58:02;3.28;;;2.75;;
53287;SDS011;39172;45.550;12.072;2023-08-24T07:04:05;3.70;;;3.40;;
53287;SDS011;39172;45.550;12.072;2023-08-24T07:10:06;3.10;;;2.80;;
53287;SDS011;39172;45.550;12.072;2023-08-24T07:16:08;3.95;;;3.65;;
53287;SDS011;39172;45.550;12.072;2023-08-24T07:22:08;3.05;;;2.75;;
53287;SDS011;39172;45.550;12.072;2023-08-24T07:28:09;2.60;;;2.40;;
53287;SDS011;39172;45.550;12.072;2023-08-24T07:34:10;3.60;;;3.30;;
53287;SDS011;39172;45.550;12.072;2023-08-24T07:40:11;2.42;;;2.22;;
53287;SDS011;39172;45.550;12.072;2023-08-24T07:46:12;3.03;;;2.72;;
53287;SDS011;39172;45.550;12.072;2023-08-24T07:52:13;3.20;;;2.90;;
53287;SDS011;39172;45.550;12.072;2023-08-24T07:58:14;2.90;;;2.70;;
53287;SDS011;39172;45.550;12.072;2023-08-24T08:04:15;3.40;;;3.10;;
53287;SDS011;39172;45.550;12.072;2023-08-24T08:10:16;4.70;;;4.28;;
53287;SDS011;39172;45.550;12.072;2023-08-24T08:16:18;5.45;;;4.60;;
53287;SDS011;39172;45.550;12.072;2023-08-24T08:22:19;4.15;;;3.75;;
53287;SDS011;39172;45.550;12.072;2023-08-24T08:28:20;3.00;;;2.80;;
53287;SDS011;39172;45.550;12.072;2023-08-24T08:34:21;4.57;;;4.18;;
53287;SDS011;39172;45.550;12.072;2023-08-24T08:40:22;5.20;;;4.72;;
53287;SDS011;39172;45.550;12.072;2023-08-24T08:46:26;4.93;;;4.47;;
53287;SDS011;39172;45.550;12.072;2023-08-24T08:52:28;4.20;;;3.80;;
53287;SDS011;39172;45.550;12.072;2023-08-24T08:58:29;4.60;;;4.20;;
53287;SDS011;39172;45.550;12.072;2023-08-24T09:04:31;4.45;;;4.05;;
53287;SDS011;39172;45.550;12.072;2023-08-24T09:10:32;4.63;;;4.22;;
53287;SDS011;39172;45.550;12.072;2023-08-24T09:16:33;4.65;;;4.20;;
53287;SDS011;39172;45.550;12.072;2023-08-24T09:22:37;5.60;;;4.53;;
53287;SDS011;39172;45.550;12.072;2023-08-24T09:28:42;4.85;;;4.45;;
53287;SDS011;39172;45.550;12.072;2023-08-24T09:34:43;5.35;;;4.63;;
53287;SDS011;39172;45.550;12.072;2023-08-24T09:40:44;4.47;;;4.07;;
53287;SDS011;39172;45.550;12.072;2023-08-24T09:46:49;4.50;;;4.10;;
53287;SDS011;39172;45.550;12.072;2023-08-24T09:52:51;5.30;;;4.80;;
53287;SDS011;39172;45.550;12.072;2023-08-24T09:58:54;3.75;;;3.45;;
53287;SDS011;39172;45.550;12.072;2023-08-24T10:04:56;4.32;;;3.92;;
53287;SDS011;39172;45.550;12.072;2023-08-24T10:10:57;4.00;;;3.60;;
53287;SDS011;39172;45.550;12.072;2023-08-24T10:17:01;3.80;;;3.50;;
53287;SDS011;39172;45.550;12.072;2023-08-24T10:23:02;4.97;;;4.47;;
53287;SDS011;39172;45.550;12.072;2023-08-24T10:29:03;5.15;;;4.68;;
53287;SDS011;39172;45.550;12.072;2023-08-24T10:35:05;4.25;;;3.85;;
53287;SDS011;39172;45.550;12.072;2023-08-24T10:41:06;4.30;;;3.90;;
53287;SDS011;39172;45.550;12.072;2023-08-24T10:47:10;5.03;;;4.53;;
53287;SDS011;39172;45.550;12.072;2023-08-24T10:53:17;4.80;;;4.40;;
53287;SDS011;39172;45.550;12.072;2023-08-24T10:59:36;5.60;;;5.10;;
53287;SDS011;39172;45.550;12.072;2023-08-24T11:05:39;5.20;;;4.75;;
53287;SDS011;39172;45.550;12.072;2023-08-24T11:11:43;6.53;;;5.93;;
53287;SDS011;39172;45.550;12.072;2023-08-24T11:18:11;6.07;;;5.43;;
53287;SDS011;39172;45.550;12.072;2023-08-24T11:24:12;5.85;;;4.93;;
53287;SDS011;39172;45.550;12.072;2023-08-24T11:30:16;6.50;;;5.90;;
53287;SDS011;39172;45.550;12.072;2023-08-24T11:36:17;4.93;;;4.53;;
53287;SDS011;39172;45.550;12.072;2023-08-24T11:42:18;4.70;;;4.30;;
53287;SDS011;39172;45.550;12.072;2023-08-24T11:48:19;5.30;;;4.80;;
53287;SDS011;39172;45.550;12.072;2023-08-24T11:54:20;4.60;;;4.20;;
53287;SDS011;39172;45.550;12.072;2023-08-24T12:00:22;4.65;;;4.25;;
53287;SDS011;39172;45.550;12.072;2023-08-24T12:06:26;5.72;;;4.80;;
53287;SDS011;39172;45.550;12.072;2023-08-24T12:12:27;5.55;;;5.05;;
53287;SDS011;39172;45.550;12.072;2023-08-24T12:18:28;5.68;;;5.18;;
53287;SDS011;39172;45.550;12.072;2023-08-24T12:24:29;5.50;;;5.05;;
53287;SDS011;39172;45.550;12.072;2023-08-24T12:30:30;5.78;;;5.28;;
53287;SDS011;39172;45.550;12.072;2023-08-24T12:36:35;6.40;;;5.38;;
53287;SDS011;39172;45.550;12.072;2023-08-24T12:42:37;5.72;;;5.22;;
53287;SDS011;39172;45.550;12.072;2023-08-24T12:48:38;5.95;;;5.45;;
53287;SDS011;39172;45.550;12.072;2023-08-24T12:54:38;5.18;;;4.75;;
53287;SDS011;39172;45.550;12.072;2023-08-24T13:00:39;5.22;;;4.43;;
53287;SDS011;39172;45.550;12.072;2023-08-24T13:06:40;5.13;;;4.57;;
53287;SDS011;39172;45.550;12.072;2023-08-24T13:12:41;5.75;;;5.15;;
53287;SDS011;39172;45.550;12.072;2023-08-24T13:18:42;4.95;;;4.35;;
53287;SDS011;39172;45.550;12.072;2023-08-24T13:24:43;5.55;;;5.00;;
53287;SDS011;39172;45.550;12.072;2023-08-24T13:30:45;5.47;;;4.78;;
53287;SDS011;39172;45.550;12.072;2023-08-24T13:36:46;5.47;;;5.00;;
53287;SDS011;39172;45.550;12.072;2023-08-24T13:42:47;5.32;;;4.82;;
53287;SDS011;39172;45.550;12.072;2023-08-24T13:48:48;4.90;;;4.50;;
53287;SDS011;39172;45.550;12.072;2023-08-24T13:54:49;6.10;;;5.50;;
53287;SDS011;39172;45.550;12.072;2023-08-24T14:00:56;5.78;;;5.28;;
53287;SDS011;39172;45.550;12.072;2023-08-24T14:06:57;5.35;;;4.90;;
53287;SDS011;39172;45.550;12.072;2023-08-24T14:12:58;5.60;;;5.10;;
53287;SDS011;39172;45.550;12.072;2023-08-24T14:18:59;5.80;;;5.22;;
53287;SDS011;39172;45.550;12.072;2023-08-24T14:25:00;6.53;;;5.93;;
53287;SDS011;39172;45.550;12.072;2023-08-24T14:31:01;6.90;;;6.30;;
53287;SDS011;39172;45.550;12.072;2023-08-24T14:37:02;6.05;;;5.55;;
53287;SDS011;39172;45.550;12.072;2023-08-24T14:43:03;7.05;;;6.35;;
53287;SDS011;39172;45.550;12.072;2023-08-24T14:49:04;6.93;;;6.22;;
53287;SDS011;39172;45.550;12.072;2023-08-24T14:55:06;7.55;;;6.55;;
53287;SDS011;39172;45.550;12.072;2023-08-24T15:01:09;7.32;;;6.63;;
53287;SDS011;39172;45.550;12.072;2023-08-24T15:07:10;7.63;;;6.93;;
53287;SDS011;39172;45.550;12.072;2023-08-24T15:13:12;7.28;;;6.43;;
53287;SDS011;39172;45.550;12.072;2023-08-24T15:19:12;6.75;;;6.05;;
53287;SDS011;39172;45.550;12.072;2023-08-24T15:25:13;5.32;;;4.93;;
53287;SDS011;39172;45.550;12.072;2023-08-24T15:31:14;5.13;;;4.63;;
53287;SDS011;39172;45.550;12.072;2023-08-24T15:37:15;4.97;;;4.57;;
53287;SDS011;39172;45.550;12.072;2023-08-24T15:43:16;5.10;;;4.70;;
53287;SDS011;39172;45.550;12.072;2023-08-24T15:49:17;4.30;;;3.97;;
53287;SDS011;39172;45.550;12.072;2023-08-24T15:55:18;4.40;;;4.10;;
53287;SDS011;39172;45.550;12.072;2023-08-24T16:01:19;4.60;;;3.90;;
53287;SDS011;39172;45.550;12.072;2023-08-24T16:07:20;4.40;;;3.65;;
53287;SDS011;39172;45.550;12.072;2023-08-24T16:13:21;3.63;;;3.33;;
53287;SDS011;39172;45.550;12.072;2023-08-24T16:19:22;4.40;;;4.00;;
53287;SDS011;39172;45.550;12.072;2023-08-24T16:25:23;4.60;;;4.20;;
53287;SDS011;39172;45.550;12.072;2023-08-24T16:31:24;4.00;;;3.60;;
53287;SDS011;39172;45.550;12.072;2023-08-24T16:37:25;4.45;;;3.45;;
53287;SDS011;39172;45.550;12.072;2023-08-24T16:43:26;3.60;;;3.30;;
53287;SDS011;39172;45.550;12.072;2023-08-24T16:49:26;3.85;;;3.55;;
53287;SDS011;39172;45.550;12.072;2023-08-24T16:55:27;3.42;;;3.13;;
53287;SDS011;39172;45.550;12.072;2023-08-24T17:01:28;4.05;;;3.58;;
53287;SDS011;39172;45.550;12.072;2023-08-24T17:07:29;4.50;;;3.88;;
53287;SDS011;39172;45.550;12.072;2023-08-24T17:13:30;3.80;;;3.50;;
53287;SDS011;39172;45.550;12.072;2023-08-24T17:19:31;4.35;;;3.95;;
53287;SDS011;39172;45.550;12.072;2023-08-24T17:25:32;3.58;;;3.28;;
53287;SDS011;39172;45.550;12.072;2023-08-24T17:31:33;3.17;;;2.95;;
53287;SDS011;39172;45.550;12.072;2023-08-24T17:37:34;3.53;;;3.20;;
53287;SDS011;39172;45.550;12.072;2023-08-24T17:43:36;2.95;;;2.75;;
53287;SDS011;39172;45.550;12.072;2023-08-24T17:49:41;3.25;;;2.95;;
53287;SDS011;39172;45.550;12.072;2023-08-24T17:55:42;3.35;;;3.05;;
53287;SDS011;39172;45.550;12.072;2023-08-24T18:01:43;3.45;;;3.15;;
53287;SDS011;39172;45.550;12.072;2023-08-24T18:07:44;3.95;;;3.30;;
53287;SDS011;39172;45.550;12.072;2023-08-24T18:13:45;2.67;;;2.47;;
53287;SDS011;39172;45.550;12.072;2023-08-24T18:19:47;2.63;;;2.42;;
53287;SDS011;39172;45.550;12.072;2023-08-24T18:25:48;2.60;;;2.40;;
53287;SDS011;39172;45.550;12.072;2023-08-24T18:31:49;2.17;;;1.90;;
53287;SDS011;39172;45.550;12.072;2023-08-24T18:37:50;2.40;;;2.20;;
53287;SDS011;39172;45.550;12.072;2023-08-24T18:43:51;2.30;;;2.10;;
53287;SDS011;39172;45.550;12.072;2023-08-24T18:49:52;2.30;;;2.10;;
53287;SDS011;39172;45.550;12.072;2023-08-24T18:55:56;2.28;;;2.08;;
53287;SDS011;39172;45.550;12.072;2023-08-24T19:01:57;2.33;;;2.13;;
53287;SDS011;39172;45.550;12.072;2023-08-24T19:07:58;3.58;;;2.63;;
53287;SDS011;39172;45.550;12.072;2023-08-24T19:13:59;3.95;;;3.30;;
53287;SDS011;39172;45.550;12.072;2023-08-24T19:20:01;2.22;;;2.03;;
53287;SDS011;39172;45.550;12.072;2023-08-24T19:26:02;3.08;;;2.88;;
53287;SDS011;39172;45.550;12.072;2023-08-24T19:32:03;3.17;;;2.80;;
53287;SDS011;39172;45.550;12.072;2023-08-24T19:38:04;3.65;;;3.35;;
53287;SDS011;39172;45.550;12.072;2023-08-24T19:44:05;3.42;;;3.13;;
53287;SDS011;39172;45.550;12.072;2023-08-24T19:50:07;3.05;;;2.65;;
53287;SDS011;39172;45.550;12.072;2023-08-24T19:56:07;3.00;;;2.70;;
53287;SDS011;39172;45.550;12.072;2023-08-24T20:02:08;3.10;;;2.80;;
53287;SDS011;39172;45.550;12.072;2023-08-24T20:08:09;4.60;;;3.75;;
53287;SDS011;39172;45.550;12.072;2023-08-24T20:14:10;5.05;;;4.55;;
53287;SDS011;39172;45.550;12.072;2023-08-24T20:20:12;5.55;;;5.05;;
53287;SDS011;39172;45.550;12.072;2023-08-24T20:26:17;5.50;;;4.93;;
53287;SDS011;39172;45.550;12.072;2023-08-24T20:32:18;5.20;;;4.70;;
53287;SDS011;39172;45.550;12.072;2023-08-24T20:38:19;4.50;;;4.10;;
53287;SDS011;39172;45.550;12.072;2023-08-24T20:44:20;4.70;;;4.30;;
53287;SDS011;39172;45.550;12.072;2023-08-24T20:50:21;4.35;;;3.95;;
53287;SDS011;39172;45.550;12.072;2023-08-24T20:56:22;5.75;;;4.70;;
53287;SDS011;39172;45.550;12.072;2023-08-24T21:02:23;4.45;;;3.63;;
53287;SDS011;39172;45.550;12.072;2023-08-24T21:08:24;4.30;;;3.90;;
53287;SDS011;39172;45.550;12.072;2023-08-24T21:14:25;4.45;;;4.05;;
53287;SDS011;39172;45.550;12.072;2023-08-24T21:20:26;4.85;;;4.35;;
53287;SDS011;39172;45.550;12.072;2023-08-24T21:26:27;3.60;;;3.30;;
53287;SDS011;39172;45.550;12.072;2023-08-24T21:32:28;4.20;;;3.47;;
53287;SDS011;39172;45.550;12.072;2023-08-24T21:38:30;3.60;;;2.85;;
53287;SDS011;39172;45.550;12.072;2023-08-24T21:44:31;3.00;;;2.80;;
53287;SDS011;39172;45.550;12.072;2023-08-24T21:50:32;2.80;;;2.60;;
53287;SDS011;39172;45.550;12.072;2023-08-24T21:56:35;2.95;;;2.65;;
53287;SDS011;39172;45.550;12.072;2023-08-24T22:02:36;5.22;;;4.05;;
53287;SDS011;39172;45.550;12.072;2023-08-24T22:08:37;3.08;;;2.78;;
53287;SDS011;39172;45.550;12.072;2023-08-24T22:14:38;3.58;;;3.28;;
53287;SDS011;39172;45.550;12.072;2023-08-24T22:20:39;4.97;;;4.47;;
53287;SDS011;39172;45.550;12.072;2023-08-24T22:26:40;4.70;;;4.30;;
53287;SDS011;39172;45.550;12.072;2023-08-24T22:32:42;3.95;;;3.58;;
53287;SDS011;39172;45.550;12.072;2023-08-24T22:38:43;4.03;;;3.70;;
53287;SDS011;39172;45.550;12.072;2023-08-24T22:44:44;3.92;;;3.60;;
53287;SDS011;39172;45.550;12.072;2023-08-24T22:50:45;4.20;;;3.80;;
53287;SDS011;39172;45.550;12.072;2023-08-24T22:56:46;4.32;;;4.03;;
53287;SDS011;39172;45.550;12.072;2023-08-24T23:02:47;4.93;;;4.40;;
53287;SDS011;39172;45.550;12.072;2023-08-24T23:08:48;5.13;;;4.63;;
53287;SDS011;39172;45.550;12.072;2023-08-24T23:14:49;4.80;;;4.38;;
53287;SDS011;39172;45.550;12.072;2023-08-24T23:20:50;6.18;;;5.60;;
53287;SDS011;39172;45.550;12.072;2023-08-24T23:26:51;6.50;;;5.90;;
53287;SDS011;39172;45.550;12.072;2023-08-24T23:32:52;6.25;;;5.75;;
53287;SDS011;39172;45.550;12.072;2023-08-24T23:38:53;6.00;;;5.50;;
53287;SDS011;39172;45.550;12.072;2023-08-24T23:44:54;6.20;;;5.60;;
53287;SDS011;39172;45.550;12.072;2023-08-24T23:50:55;6.95;;;6.30;;
53287;SDS011;39172;45.550;12.072;2023-08-24T23:56:57;5.72;;;5.22;;
